KIDP Airport (Independence Muni) Information

FAA: IDP - ICAO: KIDP

KIDP Airport Location

State Kansas
County Montgomery
City Independence
KIDP Airport is 5 miles southwest of Independence, KS.
Latitude 37-09-28.5347N
Longitude 095-46-44.2209W
Elevation 824ft

KIDP Airport METARs

METAR KIDP 262315Z AUTO 19009KT 10SM CLR 12/M02 A3004 RMK AO2 T01201022
Altimeter 30.04"
Temperature 12.0°C (53.6°F)
Wind 190° at 9KT
Clouds Skies are clear.
Visibility 10.0mi
Time observed: 2021-11-26T23:15:00Z

KIDP Airport Details

Status Operational
Activation February 1944
Ownership Public
Usage Public
Chart KANSAS CITY
ATC on-site No
Beacon schedule sunset-sunrise
Beacon color clear green

KIDP Airport Contacts

Owner CITY OF INDEPENDENCE
Owner address 120 N. 6TH, INDEPENDENCE, KS 67301
Owner phone 620-332-2500
Manager N/A
Manager address N/A, N/A
Manager phone 913-442-3221

KIDP Airport (Independence Muni) Radio Frequencies

KIDP (Airport) Radio Frequencies

UNICOM 123.05
Common traffic advisory frequency (CTAF) 123.05